Time;durP1;ratioP1;P1;durP2;ratioP2;P2;SDS_P1;SDS_P2;PMS_P1;PMS_P2;Temp;Humidity;BMP_temperature;BMP_pressure;BME280_temperature;BME280_humidity;BME280_pressure;Samples;Min_cycle;Max_cycle;Signal;HPM_P1;HPM_P2
2022/07/31 00:01:14;;;;;;;6.85;6.13;;;16.80;99.90;;;;;;5032791;28;20055;-78
2022/07/31 00:03:40;;;;;;;7.28;5.90;;;16.80;99.90;;;;;;5023854;28;20509;-77
2022/07/31 00:06:06;;;;;;;6.63;5.93;;;16.80;99.90;;;;;;5028821;28;20524;-78
2022/07/31 00:08:32;;;;;;;5.97;5.38;;;16.80;99.90;;;;;;5029016;28;20548;-78
2022/07/31 00:10:58;;;;;;;7.88;5.68;;;16.90;99.90;;;;;;5027126;28;20128;-80
2022/07/31 00:13:23;;;;;;;6.85;6.15;;;16.90;99.90;;;;;;5012586;28;20405;-79
2022/07/31 00:15:49;;;;;;;6.47;5.68;;;17.00;99.90;;;;;;5031273;28;20037;-80
2022/07/31 00:18:15;;;;;;;5.63;5.10;;;16.90;99.90;;;;;;5010134;28;20061;-80
2022/07/31 00:20:40;;;;;;;6.05;5.45;;;17.00;99.90;;;;;;5032738;28;20050;-80
2022/07/31 00:23:06;;;;;;;6.13;5.53;;;17.00;99.90;;;;;;5028605;28;20049;-80
2022/07/31 00:25:32;;;;;;;5.85;4.88;;;17.00;99.90;;;;;;5005080;28;20041;-80
2022/07/31 00:27:57;;;;;;;5.75;5.25;;;17.00;99.90;;;;;;5021200;28;20409;-79
2022/07/31 00:30:24;;;;;;;5.53;4.90;;;17.10;99.90;;;;;;5011297;28;20053;-80
2022/07/31 00:32:49;;;;;;;6.38;5.45;;;17.10;99.90;;;;;;5014236;28;20111;-80
2022/07/31 00:35:15;;;;;;;6.07;5.35;;;17.10;99.90;;;;;;5032143;28;20038;-80
2022/07/31 00:37:41;;;;;;;5.22;4.72;;;17.00;99.90;;;;;;5016862;28;20481;-79
2022/07/31 00:40:09;;;;;;;5.40;4.70;;;17.10;99.90;;;;;;5024836;28;20087;-79
2022/07/31 00:42:35;;;;;;;5.43;4.57;;;17.00;99.90;;;;;;5026315;28;20033;-81
2022/07/31 00:45:01;;;;;;;5.57;4.75;;;17.00;99.90;;;;;;5026585;28;20037;-79
2022/07/31 00:47:26;;;;;;;5.25;4.75;;;17.00;99.90;;;;;;5025879;28;20037;-79
2022/07/31 00:49:52;;;;;;;5.22;4.72;;;17.10;99.90;;;;;;5031692;28;20036;-79
2022/07/31 00:52:18;;;;;;;5.93;5.10;;;17.10;99.90;;;;;;5031587;28;20041;-79
2022/07/31 00:54:44;;;;;;;7.78;4.97;;;17.10;99.90;;;;;;5031652;28;20030;-79
2022/07/31 00:57:10;;;;;;;6.95;4.68;;;17.10;99.90;;;;;;5010602;28;20041;-79
2022/07/31 00:59:36;;;;;;;5.28;4.78;;;17.10;99.90;;;;;;5030669;28;20276;-79
2022/07/31 01:02:01;;;;;;;5.97;5.15;;;17.10;99.90;;;;;;5024273;28;20110;-79
2022/07/31 01:04:27;;;;;;;5.75;4.50;;;17.10;99.90;;;;;;5028654;28;20045;-79
2022/07/31 01:06:53;;;;;;;5.70;4.82;;;17.10;99.90;;;;;;5027994;28;20052;-79
2022/07/31 01:09:18;;;;;;;5.93;4.75;;;17.10;99.90;;;;;;5029043;28;20047;-79
2022/07/31 01:11:54;;;;;;;5.25;4.75;;;17.10;99.90;;;;;;5031113;28;20064;-79
2022/07/31 01:14:23;;;;;;;5.80;4.90;;;17.10;99.90;;;;;;5027698;28;20497;-79
2022/07/31 01:16:51;;;;;;;5.63;5.13;;;17.10;99.90;;;;;;5011713;28;20453;-79
2022/07/31 01:19:39;;;;;;;7.22;4.78;;;17.20;99.90;;;;;;5031209;28;20048;-79
2022/07/31 01:22:34;;;;;;;5.50;4.53;;;17.20;99.90;;;;;;5031179;28;20045;-79
2022/07/31 01:25:16;;;;;;;5.57;5.05;;;17.20;99.90;;;;;;5023164;28;20504;-79
2022/07/31 01:28:00;;;;;;;5.80;5.20;;;17.20;99.90;;;;;;5020042;28;20498;-79
2022/07/31 01:30:32;;;;;;;9.55;5.85;;;17.20;99.90;;;;;;5031017;28;20057;-79
2022/07/31 01:33:03;;;;;;;6.57;5.90;;;17.20;99.90;;;;;;5031284;28;20056;-79
2022/07/31 01:35:33;;;;;;;8.23;5.75;;;17.20;99.90;;;;;;5031483;28;20041;-79
2022/07/31 01:38:22;;;;;;;6.32;5.68;;;17.20;99.90;;;;;;5022469;28;20033;-79
2022/07/31 01:41:03;;;;;;;7.15;6.13;;;17.20;99.90;;;;;;5005770;28;20038;-79
2022/07/31 01:43:34;;;;;;;7.18;5.90;;;17.20;99.90;;;;;;5030844;28;20494;-79
2022/07/31 01:46:03;;;;;;;6.55;5.95;;;17.20;99.90;;;;;;5022818;28;20037;-79
2022/07/31 01:48:32;;;;;;;6.90;5.70;;;17.20;99.90;;;;;;5022287;28;20083;-79
2022/07/31 01:51:00;;;;;;;6.28;5.60;;;17.30;99.90;;;;;;5016955;28;20047;-79
2022/07/31 01:53:26;;;;;;;8.10;5.93;;;17.20;99.90;;;;;;5029848;28;20045;-79
2022/07/31 01:55:54;;;;;;;6.90;5.18;;;17.20;99.90;;;;;;5014059;28;20481;-79
2022/07/31 01:58:21;;;;;;;7.13;5.75;;;17.30;99.90;;;;;;5023049;28;20045;-79
2022/07/31 02:00:49;;;;;;;6.18;5.57;;;17.20;99.90;;;;;;5030474;28;20124;-79
2022/07/31 02:03:16;;;;;;;5.93;5.40;;;17.20;99.90;;;;;;5029742;28;20548;-79
2022/07/31 02:05:42;;;;;;;6.47;5.43;;;17.20;99.90;;;;;;5028436;28;20545;-79
2022/07/31 02:08:10;;;;;;;6.35;5.70;;;17.10;99.90;;;;;;5023622;28;20034;-79
2022/07/31 02:10:36;;;;;;;6.00;5.40;;;17.20;99.90;;;;;;5030448;28;20041;-79
2022/07/31 02:13:04;;;;;;;7.72;5.57;;;17.10;99.90;;;;;;5021624;28;20032;-79
2022/07/31 02:15:31;;;;;;;5.78;5.18;;;17.10;99.90;;;;;;5012804;28;20045;-79
2022/07/31 02:17:58;;;;;;;8.75;5.70;;;17.10;99.90;;;;;;5026164;28;20467;-79
2022/07/31 02:20:25;;;;;;;6.70;6.03;;;17.10;99.90;;;;;;5030831;28;20103;-79
2022/07/31 02:22:54;;;;;;;6.32;5.72;;;17.10;99.90;;;;;;5032033;28;20041;-80
2022/07/31 02:25:20;;;;;;;6.00;5.40;;;17.10;99.90;;;;;;5031715;28;20079;-80
2022/07/31 02:27:47;;;;;;;7.50;6.10;;;17.10;99.90;;;;;;5017488;28;20069;-79
2022/07/31 02:30:13;;;;;;;7.70;5.82;;;17.10;99.90;;;;;;5009111;28;20030;-79
2022/07/31 02:32:43;;;;;;;6.18;5.57;;;17.10;99.90;;;;;;5033166;28;20042;-79
2022/07/31 02:35:09;;;;;;;6.68;6.07;;;17.10;99.90;;;;;;5035771;28;20037;-79
2022/07/31 02:37:37;;;;;;;6.75;6.07;;;17.00;99.90;;;;;;5033157;28;20037;-79
2022/07/31 02:40:04;;;;;;;6.13;5.63;;;17.10;99.90;;;;;;5036115;28;20037;-79
2022/07/31 02:42:30;;;;;;;6.20;5.53;;;17.10;99.90;;;;;;5030958;28;20038;-79
2022/07/31 02:44:57;;;;;;;6.47;5.60;;;17.00;99.90;;;;;;5035815;28;20184;-79
2022/07/31 02:47:23;;;;;;;6.90;5.60;;;17.10;99.90;;;;;;5015172;28;20041;-79
2022/07/31 02:49:50;;;;;;;7.50;5.82;;;17.00;99.90;;;;;;5034849;28;20411;-79
2022/07/31 02:52:15;;;;;;;6.90;6.03;;;17.00;99.90;;;;;;5032763;28;20045;-79
2022/07/31 02:54:43;;;;;;;8.30;5.82;;;17.00;99.90;;;;;;5034020;28;20033;-80
2022/07/31 02:57:08;;;;;;;8.35;5.30;;;17.00;99.90;;;;;;5030857;28;20122;-80
2022/07/31 02:59:38;;;;;;;5.47;4.97;;;17.00;99.90;;;;;;5034594;28;20048;-79
2022/07/31 03:02:04;;;;;;;6.40;5.57;;;17.00;99.90;;;;;;5035006;28;20041;-79
2022/07/31 03:04:30;;;;;;;6.35;5.75;;;17.00;99.90;;;;;;5034461;28;20068;-79
2022/07/31 03:06:55;;;;;;;6.30;5.70;;;16.90;99.90;;;;;;5024918;28;20478;-80
2022/07/31 03:09:21;;;;;;;5.57;5.07;;;16.90;99.90;;;;;;5013050;28;20087;-80
2022/07/31 03:11:47;;;;;;;5.55;4.93;;;16.90;99.90;;;;;;5031633;28;20390;-80
2022/07/31 03:14:12;;;;;;;6.45;5.85;;;16.90;99.90;;;;;;5031105;28;20084;-79
2022/07/31 03:16:40;;;;;;;6.60;5.60;;;16.80;99.90;;;;;;5032654;28;20121;-79
2022/07/31 03:19:07;;;;;;;6.10;5.50;;;16.80;99.90;;;;;;5007122;28;20038;-79
2022/07/31 03:21:34;;;;;;;7.05;6.40;;;16.70;99.90;;;;;;5028736;28;20097;-79
2022/07/31 03:24:02;;;;;;;8.63;5.75;;;16.70;99.90;;;;;;5033151;28;20033;-80
2022/07/31 03:26:28;;;;;;;7.38;6.68;;;16.60;99.90;;;;;;5034816;28;20726;-79
2022/07/31 03:28:53;;;;;;;6.78;6.10;;;16.60;99.90;;;;;;5013472;28;20118;-79
2022/07/31 03:31:19;;;;;;;7.15;6.45;;;16.60;99.90;;;;;;5029549;28;20513;-79
2022/07/31 03:33:45;;;;;;;6.88;6.18;;;16.60;99.90;;;;;;5035083;28;20037;-79
2022/07/31 03:36:11;;;;;;;6.50;5.82;;;16.50;99.90;;;;;;5034803;28;20040;-79
2022/07/31 03:38:37;;;;;;;7.07;6.40;;;16.50;99.90;;;;;;5017696;28;20045;-79
2022/07/31 03:41:03;;;;;;;6.65;6.05;;;16.50;99.90;;;;;;5029287;28;20034;-79
2022/07/31 03:43:30;;;;;;;6.72;6.10;;;16.50;99.90;;;;;;5030310;28;20076;-79
2022/07/31 03:45:58;;;;;;;6.30;5.68;;;16.50;99.90;;;;;;5026686;28;20052;-79
2022/07/31 03:48:24;;;;;;;6.22;5.70;;;16.50;99.90;;;;;;5014643;28;20056;-80
2022/07/31 03:50:50;;;;;;;6.75;6.15;;;16.50;99.90;;;;;;5031070;28;20120;-79
2022/07/31 03:53:17;;;;;;;7.80;5.97;;;16.60;99.90;;;;;;5034299;28;20072;-79
2022/07/31 03:55:43;;;;;;;7.35;6.20;;;16.50;99.90;;;;;;5027479;28;20501;-79
2022/07/31 03:58:10;;;;;;;6.82;6.10;;;16.50;99.90;;;;;;5033702;28;20116;-79
2022/07/31 04:00:36;;;;;;;7.18;5.68;;;16.50;99.90;;;;;;5031917;28;20050;-79
2022/07/31 04:03:07;;;;;;;7.63;6.35;;;16.60;99.90;;;;;;5034107;28;20044;-79
2022/07/31 04:05:33;;;;;;;6.25;5.57;;;16.50;99.90;;;;;;5016726;28;20136;-79
2022/07/31 04:07:58;;;;;;;6.88;6.25;;;16.50;99.90;;;;;;5033882;28;20461;-79
2022/07/31 04:10:24;;;;;;;7.28;5.95;;;16.60;99.90;;;;;;5030318;28;20099;-79
2022/07/31 04:12:50;;;;;;;7.70;5.95;;;16.50;99.90;;;;;;5025994;28;20401;-79
2022/07/31 04:15:16;;;;;;;8.25;6.80;;;16.50;99.90;;;;;;5033572;28;20045;-79
2022/07/31 04:17:41;;;;;;;6.53;5.78;;;16.50;99.90;;;;;;5024578;28;20029;-79
2022/07/31 04:20:08;;;;;;;6.22;5.55;;;16.50;99.90;;;;;;5017148;28;20088;-79
2022/07/31 04:22:33;;;;;;;6.70;6.10;;;16.50;99.90;;;;;;5032224;28;20112;-79
2022/07/31 04:24:59;;;;;;;7.47;6.70;;;16.50;99.90;;;;;;5033695;28;20049;-80
2022/07/31 04:27:25;;;;;;;6.93;6.22;;;16.50;99.90;;;;;;5026041;28;20044;-80
2022/07/31 04:29:50;;;;;;;6.47;5.78;;;16.60;99.90;;;;;;5027965;28;20037;-80
2022/07/31 04:32:16;;;;;;;7.63;6.80;;;16.60;99.90;;;;;;5010668;28;20096;-80
2022/07/31 04:34:41;;;;;;;9.05;7.28;;;16.60;99.90;;;;;;5030619;28;20056;-80
2022/07/31 04:37:07;;;;;;;7.97;7.15;;;16.60;99.90;;;;;;5026376;28;20505;-80
2022/07/31 04:39:33;;;;;;;7.60;6.80;;;16.70;99.90;;;;;;5032536;28;20041;-80
2022/07/31 04:41:59;;;;;;;7.72;7.03;;;16.70;99.90;;;;;;5023922;28;20052;-80
2022/07/31 04:44:24;;;;;;;8.55;7.05;;;16.80;99.90;;;;;;5008196;28;20046;-80
2022/07/31 04:46:50;;;;;;;7.00;6.40;;;16.80;99.90;;;;;;5031084;28;20084;-80
2022/07/31 04:49:16;;;;;;;7.80;7.07;;;16.80;99.90;;;;;;5012933;28;20041;-80
2022/07/31 04:51:42;;;;;;;7.40;6.60;;;16.90;99.90;;;;;;5025556;28;20042;-80
2022/07/31 04:54:09;;;;;;;7.55;6.40;;;16.90;99.90;;;;;;5030999;28;20048;-80
2022/07/31 04:56:36;;;;;;;7.78;6.97;;;16.90;99.90;;;;;;5031130;28;20034;-80
2022/07/31 04:59:08;;;;;;;7.60;6.80;;;17.00;99.90;;;;;;5025619;28;20053;-80
2022/07/31 05:01:34;;;;;;;6.70;6.07;;;16.90;99.90;;;;;;5022167;28;20033;-80
2022/07/31 05:04:00;;;;;;;6.97;6.38;;;17.00;99.90;;;;;;5028229;28;20037;-80
2022/07/31 05:06:34;;;;;;;7.13;6.43;;;17.10;99.90;;;;;;5031828;28;20493;-80
2022/07/31 05:09:00;;;;;;;9.50;7.18;;;17.10;99.90;;;;;;5031507;28;20045;-80
2022/07/31 05:11:26;;;;;;;8.27;6.60;;;17.10;99.90;;;;;;5028283;28;20037;-80
2022/07/31 05:13:53;;;;;;;7.78;7.00;;;17.20;99.90;;;;;;5031418;28;20171;-80
2022/07/31 05:16:19;;;;;;;8.82;7.10;;;17.20;99.90;;;;;;5031696;28;20116;-80
2022/07/31 05:18:46;;;;;;;7.30;6.57;;;17.30;99.90;;;;;;5031392;28;20044;-80
2022/07/31 05:21:13;;;;;;;8.52;7.18;;;17.30;99.90;;;;;;5023819;28;20038;-80
2022/07/31 05:23:43;;;;;;;8.40;6.85;;;17.30;99.90;;;;;;5029341;28;20041;-80
2022/07/31 05:26:10;;;;;;;7.78;7.07;;;17.40;99.90;;;;;;5031606;28;20049;-80
2022/07/31 05:28:37;;;;;;;8.35;6.63;;;17.50;99.90;;;;;;5031033;28;20045;-80
2022/07/31 05:31:03;;;;;;;8.50;7.28;;;17.60;99.90;;;;;;5025080;28;20397;-80
2022/07/31 05:33:29;;;;;;;7.57;6.88;;;17.60;99.90;;;;;;5027787;28;20549;-80
2022/07/31 05:35:56;;;;;;;7.72;7.03;;;17.70;99.90;;;;;;5020511;28;20124;-80
2022/07/31 05:38:22;;;;;;;8.38;6.85;;;17.70;99.90;;;;;;5029587;28;20095;-80
2022/07/31 05:40:48;;;;;;;8.13;6.63;;;17.80;99.90;;;;;;5031106;28;20041;-80
2022/07/31 05:43:14;;;;;;;7.10;6.40;;;17.80;99.90;;;;;;5027893;28;20037;-80
2022/07/31 05:45:39;;;;;;;9.00;6.47;;;17.80;99.90;;;;;;5018766;28;20552;-80
2022/07/31 05:48:05;;;;;;;8.13;6.78;;;17.90;99.90;;;;;;5030943;28;20041;-80
2022/07/31 05:50:33;;;;;;;8.35;7.20;;;17.90;99.90;;;;;;5020588;28;20056;-80
2022/07/31 05:52:58;;;;;;;7.60;6.65;;;18.00;99.90;;;;;;5023102;28;20025;-80
2022/07/31 05:55:24;;;;;;;8.00;6.63;;;18.00;99.90;;;;;;5014618;28;20099;-80
2022/07/31 05:57:50;;;;;;;7.68;6.97;;;18.10;99.90;;;;;;5014835;28;20049;-80
2022/07/31 06:00:16;;;;;;;10.23;7.03;;;18.20;99.90;;;;;;5009091;28;20484;-80
2022/07/31 06:02:42;;;;;;;7.00;6.30;;;18.20;99.90;;;;;;5012040;28;20042;-80
2022/07/31 06:05:08;;;;;;;7.13;6.40;;;18.30;99.90;;;;;;5031038;28;20041;-80
2022/07/31 06:07:34;;;;;;;7.95;7.13;;;18.30;99.90;;;;;;5013082;28;20064;-80
2022/07/31 06:10:00;;;;;;;7.25;6.65;;;18.40;99.90;;;;;;5018093;28;20029;-82
2022/07/31 06:12:26;;;;;;;8.40;6.65;;;18.40;99.90;;;;;;5008696;28;20045;-80
2022/07/31 06:14:51;;;;;;;6.88;6.18;;;18.40;99.90;;;;;;5030004;28;20037;-79
2022/07/31 06:17:17;;;;;;;7.93;6.28;;;18.50;99.90;;;;;;5022759;28;20041;-79
2022/07/31 06:19:42;;;;;;;7.30;6.60;;;18.50;99.90;;;;;;5021186;28;20048;-79
2022/07/31 06:22:08;;;;;;;6.95;6.25;;;18.50;99.90;;;;;;5006624;28;20120;-79
2022/07/31 06:24:33;;;;;;;7.35;6.55;;;18.60;99.90;;;;;;5025786;28;20483;-79
2022/07/31 06:27:00;;;;;;;6.63;5.95;;;18.60;99.90;;;;;;5024079;28;20041;-80
2022/07/31 06:29:27;;;;;;;7.35;6.03;;;18.60;99.90;;;;;;5028168;28;20452;-80
2022/07/31 06:31:56;;;;;;;7.10;5.90;;;18.70;99.90;;;;;;5013809;28;20034;-80
2022/07/31 08:18:30;;;;;;;6.60;4.97;;;21.60;99.90;;;;;;4974516;28;20544;-77
2022/07/31 08:20:57;;;;;;;5.35;4.85;;;21.70;99.90;;;;;;4948224;28;20127;-77
2022/07/31 08:23:23;;;;;;;6.10;4.88;;;21.70;99.90;;;;;;4968309;23;20046;-80
2022/07/31 08:25:48;;;;;;;7.47;4.07;;;21.70;99.90;;;;;;4940022;28;20042;-82
2022/07/31 08:28:14;;;;;;;6.95;4.43;;;21.70;99.90;;;;;;4950544;28;20178;-82
2022/07/31 08:30:40;;;;;;;6.43;4.70;;;21.70;99.90;;;;;;4933659;28;20490;-82
2022/07/31 08:33:05;;;;;;;7.13;4.82;;;21.70;99.90;;;;;;4939173;28;20039;-82
2022/07/31 08:35:31;;;;;;;5.82;4.95;;;21.70;99.90;;;;;;4954482;28;20030;-82
2022/07/31 08:37:57;;;;;;;6.95;5.95;;;21.70;99.90;;;;;;4939803;29;20126;-83
2022/07/31 08:40:24;;;;;;;6.97;5.97;;;21.60;99.90;;;;;;4939379;28;20034;-83
2022/07/31 08:42:50;;;;;;;6.47;5.63;;;21.60;99.90;;;;;;4940680;28;20046;-83
2022/07/31 08:45:15;;;;;;;7.03;6.28;;;21.50;99.90;;;;;;4956436;28;20040;-83
2022/07/31 08:47:45;;;;;;;7.75;6.00;;;21.40;99.90;;;;;;4939576;28;20042;-83
2022/07/31 08:50:12;;;;;;;7.55;6.72;;;21.30;99.90;;;;;;4954281;28;20431;-83
2022/07/31 08:52:41;;;;;;;7.20;6.50;;;21.20;99.90;;;;;;4940619;28;20043;-80
2022/07/31 08:55:07;;;;;;;8.00;7.20;;;21.00;99.90;;;;;;4937829;28;20045;-81
2022/07/31 08:57:34;;;;;;;6.75;6.15;;;20.90;99.90;;;;;;4954632;28;20070;-81
2022/07/31 09:00:01;;;;;;;8.38;7.28;;;20.70;99.90;;;;;;4940081;28;20043;-80
2022/07/31 09:02:31;;;;;;;8.00;6.68;;;20.60;99.90;;;;;;4954030;28;20707;-80
2022/07/31 09:04:57;;;;;;;9.15;8.25;;;20.50;99.90;;;;;;4962268;28;20039;-80
2022/07/31 09:07:22;;;;;;;9.05;8.00;;;20.50;99.90;;;;;;4943560;28;20549;-80
2022/07/31 09:09:48;;;;;;;9.52;7.25;;;20.40;99.90;;;;;;4939979;28;20053;-80
2022/07/31 09:12:26;;;;;;;10.30;7.47;;;20.40;99.90;;;;;;4953275;28;20039;-80
2022/07/31 09:14:51;;;;;;;8.63;7.03;;;20.40;99.90;;;;;;4954147;28;20105;-80
2022/07/31 09:17:18;;;;;;;9.95;7.88;;;20.30;99.90;;;;;;4954374;28;20039;-80
2022/07/31 09:19:46;;;;;;;8.50;7.70;;;20.30;99.90;;;;;;4935190;28;20039;-80
2022/07/31 09:22:20;;;;;;;8.60;7.70;;;20.30;99.90;;;;;;4937333;29;20391;-80
2022/07/31 09:24:46;;;;;;;11.20;8.10;;;20.30;99.90;;;;;;4954622;28;20086;-80
2022/07/31 09:27:13;;;;;;;8.95;8.05;;;20.30;99.90;;;;;;4954643;28;20081;-80
2022/07/31 09:29:40;;;;;;;9.00;8.10;;;20.30;99.90;;;;;;4938449;28;20110;-80
2022/07/31 09:32:11;;;;;;;10.07;9.10;;;20.40;99.90;;;;;;4936754;29;20047;-79
2022/07/31 09:34:37;;;;;;;10.18;8.98;;;20.40;99.90;;;;;;4953714;28;20042;-79
2022/07/31 09:37:13;;;;;;;9.48;8.57;;;20.40;99.90;;;;;;4936342;28;20046;-79
2022/07/31 09:39:40;;;;;;;8.90;8.00;;;20.40;99.90;;;;;;4937243;28;20077;-79
2022/07/31 09:42:07;;;;;;;9.90;8.68;;;20.50;99.90;;;;;;4942691;28;20407;-79
2022/07/31 09:44:42;;;;;;;10.27;8.27;;;20.50;99.90;;;;;;4935946;28;20039;-80
2022/07/31 09:47:22;;;;;;;9.73;8.73;;;20.50;99.90;;;;;;4954264;28;20057;-79
2022/07/31 09:50:01;;;;;;;11.23;8.68;;;20.50;99.90;;;;;;4955285;28;20039;-80
2022/07/31 09:52:29;;;;;;;10.43;8.43;;;20.60;99.90;;;;;;4955254;28;20097;-80
2022/07/31 09:55:11;;;;;;;9.93;8.90;;;20.70;99.90;;;;;;4938124;28;20038;-80
2022/07/31 09:57:37;;;;;;;9.15;8.10;;;20.70;99.90;;;;;;4929557;28;20038;-80
2022/07/31 10:00:09;;;;;;;9.60;8.48;;;20.80;99.90;;;;;;4939945;28;20327;-80
2022/07/31 10:02:38;;;;;;;8.68;7.78;;;20.80;99.90;;;;;;4939092;28;20487;-80
2022/07/31 10:05:05;;;;;;;8.45;7.65;;;20.80;99.90;;;;;;4955646;28;20086;-80
2022/07/31 10:07:34;;;;;;;8.52;7.72;;;20.80;99.90;;;;;;4927927;28;20070;-81
2022/07/31 10:10:01;;;;;;;9.60;8.55;;;20.80;99.90;;;;;;4934965;29;20499;-80
2022/07/31 10:12:29;;;;;;;8.75;7.78;;;20.80;99.90;;;;;;4948554;29;20035;-80
2022/07/31 10:15:02;;;;;;;10.02;8.93;;;20.70;99.90;;;;;;4948030;28;20129;-81
2022/07/31 10:17:31;;;;;;;9.40;8.50;;;20.70;99.90;;;;;;4938972;28;20043;-80
2022/07/31 10:20:01;;;;;;;8.60;7.40;;;20.60;99.90;;;;;;4944795;29;20050;-80
2022/07/31 10:22:37;;;;;;;9.55;7.28;;;20.70;99.90;;;;;;4936246;29;20126;-80
2022/07/31 10:25:04;;;;;;;9.13;7.47;;;20.60;99.90;;;;;;4954294;28;20035;-81
2022/07/31 10:27:31;;;;;;;7.75;6.95;;;20.60;99.90;;;;;;4953471;28;20121;-79
2022/07/31 10:29:58;;;;;;;9.40;7.50;;;20.50;99.90;;;;;;4941463;28;20043;-85
2022/07/31 10:32:24;;;;;;;9.02;7.28;;;20.40;99.90;;;;;;4953030;28;20046;-81
2022/07/31 10:34:50;;;;;;;8.45;7.60;;;20.40;99.90;;;;;;4953008;28;20120;-81
2022/07/31 10:37:25;;;;;;;10.70;7.93;;;20.30;99.90;;;;;;4948186;28;20482;-80
2022/07/31 10:39:56;;;;;;;8.88;7.93;;;20.10;99.90;;;;;;4938805;28;20034;-80
2022/07/31 10:42:54;;;;;;;9.18;8.27;;;20.10;99.90;;;;;;4953215;28;20134;-81
2022/07/31 10:45:20;;;;;;;17.80;9.32;;;20.10;99.90;;;;;;4946106;28;20054;-80
2022/07/31 10:47:59;;;;;;;10.48;8.63;;;20.10;99.90;;;;;;4936037;28;20038;-80
2022/07/31 10:50:29;;;;;;;10.15;8.75;;;20.10;99.90;;;;;;4936681;28;20046;-78
2022/07/31 10:53:05;;;;;;;10.07;9.13;;;20.10;99.90;;;;;;4953548;28;20039;-81
2022/07/31 10:55:31;;;;;;;10.38;9.27;;;20.00;99.90;;;;;;4940736;28;20403;-81
2022/07/31 10:58:06;;;;;;;10.43;9.15;;;20.00;99.90;;;;;;4941437;28;20034;-80
2022/07/31 11:00:32;;;;;;;12.57;9.82;;;19.90;99.90;;;;;;4956941;28;20191;-79
2022/07/31 11:02:58;;;;;;;11.95;10.52;;;19.90;99.90;;;;;;4933706;28;20158;-79
2022/07/31 11:05:26;;;;;;;13.20;10.77;;;19.90;99.90;;;;;;4955904;28;20066;-79
2022/07/31 11:08:09;;;;;;;13.85;11.18;;;19.80;99.90;;;;;;4951575;28;20121;-80
2022/07/31 11:10:34;;;;;;;13.25;11.27;;;19.70;99.90;;;;;;4935679;28;20569;-79
2022/07/31 11:13:06;;;;;;;13.57;12.10;;;19.70;99.90;;;;;;4950905;28;20450;-79
2022/07/31 11:15:32;;;;;;;15.50;12.45;;;19.60;99.90;;;;;;4935385;28;20046;-79
2022/07/31 11:18:09;;;;;;;15.57;13.85;;;19.60;99.90;;;;;;4931369;28;20074;-79
2022/07/31 11:20:35;;;;;;;17.40;12.73;;;19.60;99.90;;;;;;4947076;28;20046;-79
2022/07/31 11:23:03;;;;;;;16.08;13.55;;;19.50;99.90;;;;;;4942435;28;20113;-80
2022/07/31 11:25:33;;;;;;;17.63;13.88;;;19.50;99.90;;;;;;4942628;28;20027;-80
2022/07/31 11:28:22;;;;;;;21.90;15.50;;;19.40;99.90;;;;;;4941662;28;20042;-80
2022/07/31 11:30:58;;;;;;;20.52;15.80;;;19.40;99.90;;;;;;4938262;28;20035;-83
2022/07/31 11:33:42;;;;;;;18.92;15.55;;;19.40;99.90;;;;;;4941192;28;20050;-85
2022/07/31 11:36:13;;;;;;;17.92;16.08;;;19.30;99.90;;;;;;4954388;28;20039;-84
2022/07/31 11:38:46;;;;;;;19.45;16.83;;;19.30;99.90;;;;;;4942202;28;20131;-83
2022/07/31 11:41:12;;;;;;;20.05;17.55;;;19.30;99.90;;;;;;4942508;28;20475;-83
2022/07/31 11:43:47;;;;;;;25.63;19.30;;;19.30;99.90;;;;;;4940776;28;20046;-84
2022/07/31 11:46:23;;;;;;;21.73;18.27;;;19.40;99.90;;;;;;4941822;28;20039;-84
2022/07/31 11:48:49;;;;;;;23.23;18.70;;;19.40;99.90;;;;;;4958057;28;20118;-85
2022/07/31 11:51:18;;;;;;;24.48;20.27;;;19.50;99.90;;;;;;4958190;28;20070;-85
2022/07/31 11:53:44;;;;;;;25.00;20.50;;;19.60;99.90;;;;;;4937654;28;20039;-85
2022/07/31 11:56:10;;;;;;;24.95;21.23;;;19.60;99.90;;;;;;4942023;28;20474;-85
2022/07/31 11:58:37;;;;;;;25.95;22.08;;;19.70;99.90;;;;;;4948718;28;20129;-84
2022/07/31 12:01:04;;;;;;;26.75;21.95;;;19.70;99.90;;;;;;4941933;28;20372;-85
2022/07/31 12:03:38;;;;;;;27.73;23.83;;;19.70;99.90;;;;;;4957873;28;20455;-85
2022/07/31 12:06:08;;;;;;;26.15;22.33;;;19.70;99.90;;;;;;4923366;28;20537;-85
2022/07/31 12:08:34;;;;;;;26.02;23.27;;;19.70;99.90;;;;;;4941286;28;20129;-85
2022/07/31 12:11:01;;;;;;;28.52;24.10;;;19.70;99.90;;;;;;4941611;28;20046;-85
2022/07/31 12:13:28;;;;;;;30.35;25.45;;;19.70;99.90;;;;;;4941507;28;20039;-84
2022/07/31 12:16:02;;;;;;;30.00;25.42;;;19.90;99.90;;;;;;4956729;28;20084;-84
2022/07/31 12:18:28;;;;;;;26.70;23.85;;;19.90;99.90;;;;;;4939905;28;20130;-85
2022/07/31 12:21:01;;;;;;;26.13;23.33;;;19.90;99.90;;;;;;4940810;28;20506;-85
2022/07/31 12:23:38;;;;;;;25.75;23.10;;;19.90;99.90;;;;;;4941078;28;20073;-86
2022/07/31 12:26:04;;;;;;;27.40;24.05;;;19.70;99.90;;;;;;4950353;28;20046;-85
2022/07/31 12:28:30;;;;;;;25.98;23.15;;;19.60;99.90;;;;;;4937144;28;20079;-85
2022/07/31 12:30:59;;;;;;;26.65;23.83;;;19.60;99.90;;;;;;4939975;28;20031;-85
2022/07/31 12:33:26;;;;;;;26.23;23.42;;;19.60;99.90;;;;;;4939354;28;20038;-85
2022/07/31 12:35:53;;;;;;;30.42;24.95;;;19.60;99.90;;;;;;4938059;29;20549;-85
2022/07/31 12:38:26;;;;;;;27.00;24.02;;;19.60;99.90;;;;;;4940789;28;20066;-87
2022/07/31 12:41:04;;;;;;;;;;;19.60;99.90;;;;;;4956351;28;20126;-86
2022/07/31 12:43:31;;;;;;;26.60;23.80;;;19.60;99.90;;;;;;4940827;28;20401;-84
2022/07/31 12:45:59;;;;;;;27.40;24.50;;;19.50;99.90;;;;;;4930449;29;20043;-86
2022/07/31 12:48:26;;;;;;;26.58;23.67;;;19.50;99.90;;;;;;4934706;28;20133;-85
2022/07/31 12:50:51;;;;;;;25.63;22.92;;;19.50;99.90;;;;;;4937055;28;20035;-85
2022/07/31 12:53:17;;;;;;;26.90;24.05;;;19.50;99.90;;;;;;4937261;29;20578;-83
2022/07/31 12:55:43;;;;;;;28.08;24.65;;;19.50;99.90;;;;;;4954042;28;20122;-85
2022/07/31 12:58:09;;;;;;;27.85;23.38;;;19.50;99.90;;;;;;4953745;29;20035;-85
2022/07/31 13:00:43;;;;;;;27.02;23.88;;;19.40;99.90;;;;;;4938743;28;20038;-85
2022/07/31 13:03:09;;;;;;;33.88;24.95;;;19.50;99.90;;;;;;4937863;28;20480;-86
2022/07/31 13:05:35;;;;;;;29.35;23.85;;;19.40;99.90;;;;;;4939774;28;20085;-85
2022/07/31 13:08:00;;;;;;;31.75;23.90;;;19.40;99.90;;;;;;4936549;29;20035;-85
2022/07/31 13:10:27;;;;;;;28.10;23.38;;;19.40;99.90;;;;;;4966383;28;20043;-86
2022/07/31 13:12:53;;;;;;;38.13;24.80;;;19.40;99.90;;;;;;4943675;28;20027;-86
2022/07/31 13:15:28;;;;;;;34.85;23.85;;;19.50;99.90;;;;;;4939520;28;20053;-85
2022/07/31 13:17:54;;;;;;;30.00;22.40;;;19.50;99.90;;;;;;4934644;28;20408;-85
2022/07/31 13:20:20;;;;;;;33.55;22.05;;;19.50;99.90;;;;;;4939514;28;20042;-85
2022/07/31 13:22:45;;;;;;;40.63;20.55;;;19.50;99.90;;;;;;4941760;28;20516;-85
2022/07/31 13:25:11;;;;;;;34.47;20.75;;;19.50;99.90;;;;;;4946368;28;20447;-85
2022/07/31 13:27:37;;;;;;;32.88;19.45;;;19.50;99.90;;;;;;4941922;28;20038;-85
2022/07/31 13:30:03;;;;;;;30.65;20.05;;;19.60;99.90;;;;;;4956434;28;20047;-85
2022/07/31 13:32:30;;;;;;;33.40;20.45;;;19.60;99.90;;;;;;4954356;28;20035;-85
2022/07/31 13:34:56;;;;;;;27.95;18.25;;;19.60;99.90;;;;;;4935719;28;20050;-85
2022/07/31 13:37:21;;;;;;;33.70;20.83;;;19.60;99.90;;;;;;4946688;28;20034;-82
2022/07/31 13:39:47;;;;;;;30.75;19.20;;;19.70;99.90;;;;;;4952843;28;20083;-83
2022/07/31 13:42:13;;;;;;;25.48;18.63;;;19.70;99.90;;;;;;4945787;28;20038;-83
2022/07/31 13:44:38;;;;;;;25.05;18.35;;;19.60;99.90;;;;;;4955842;28;20046;-84
2022/07/31 13:47:04;;;;;;;32.55;17.35;;;19.60;99.90;;;;;;4955641;28;20396;-84
2022/07/31 13:49:31;;;;;;;20.92;16.30;;;19.50;99.90;;;;;;4945403;28;20044;-83
2022/07/31 13:51:58;;;;;;;33.53;16.75;;;19.50;99.90;;;;;;4938627;28;21799;-83
2022/07/31 13:54:24;;;;;;;27.73;15.15;;;19.50;99.90;;;;;;4935080;28;20043;-82
2022/07/31 13:56:50;;;;;;;20.13;14.73;;;19.50;99.90;;;;;;4937162;28;20053;-82
2022/07/31 13:59:17;;;;;;;17.90;12.57;;;19.50;99.90;;;;;;4940092;28;20098;-82
2022/07/31 14:01:43;;;;;;;20.08;12.40;;;19.50;99.90;;;;;;4952909;28;20043;-82
2022/07/31 14:04:08;;;;;;;17.42;12.60;;;19.60;99.90;;;;;;4939993;28;20093;-83
2022/07/31 14:06:34;;;;;;;20.08;12.20;;;19.70;99.90;;;;;;4952287;28;20035;-83
2022/07/31 14:09:00;;;;;;;18.08;10.93;;;19.70;99.90;;;;;;4941031;28;20100;-83
2022/07/31 14:11:25;;;;;;;12.93;9.75;;;19.70;99.90;;;;;;4937521;28;20042;-83
2022/07/31 14:13:51;;;;;;;19.40;10.27;;;19.80;99.90;;;;;;4943251;28;20522;-83
2022/07/31 14:16:16;;;;;;;14.00;10.40;;;19.90;99.90;;;;;;4954609;28;20038;-83
2022/07/31 14:18:42;;;;;;;16.98;11.88;;;20.00;99.90;;;;;;4936984;28;20046;-83
2022/07/31 14:21:07;;;;;;;18.25;12.13;;;20.10;99.90;;;;;;4933544;29;20165;-83
2022/07/31 14:23:33;;;;;;;15.57;11.95;;;20.20;99.90;;;;;;4954950;28;20132;-83
2022/07/31 14:25:59;;;;;;;15.82;11.63;;;20.40;99.90;;;;;;4955126;28;20035;-83
2022/07/31 14:28:26;;;;;;;10.93;8.90;;;20.40;99.90;;;;;;4956847;28;20402;-84